sensor_id;sensor_type;location;lat;lon;timestamp;P1;durP1;ratioP1;P2;durP2;ratioP2
28762;SDS011;15918;51.270;6.522;2023-06-26T00:02:00;8.20;;;7.50;;
28762;SDS011;15918;51.270;6.522;2023-06-26T00:04:27;8.05;;;7.43;;
28762;SDS011;15918;51.270;6.522;2023-06-26T00:06:52;9.00;;;8.20;;
28762;SDS011;15918;51.270;6.522;2023-06-26T00:09:18;8.85;;;8.05;;
28762;SDS011;15918;51.270;6.522;2023-06-26T00:11:43;8.93;;;8.00;;
28762;SDS011;15918;51.270;6.522;2023-06-26T00:14:09;8.40;;;7.63;;
28762;SDS011;15918;51.270;6.522;2023-06-26T00:16:34;12.75;;;7.97;;
28762;SDS011;15918;51.270;6.522;2023-06-26T00:19:01;8.73;;;7.70;;
28762;SDS011;15918;51.270;6.522;2023-06-26T00:21:26;8.57;;;7.78;;
28762;SDS011;15918;51.270;6.522;2023-06-26T00:23:53;9.40;;;8.40;;
28762;SDS011;15918;51.270;6.522;2023-06-26T00:26:18;9.23;;;8.35;;
28762;SDS011;15918;51.270;6.522;2023-06-26T00:28:44;8.35;;;7.43;;
28762;SDS011;15918;51.270;6.522;2023-06-26T00:31:09;8.65;;;7.85;;
28762;SDS011;15918;51.270;6.522;2023-06-26T00:33:35;8.95;;;8.05;;
28762;SDS011;15918;51.270;6.522;2023-06-26T00:36:00;8.65;;;7.90;;
28762;SDS011;15918;51.270;6.522;2023-06-26T00:38:26;9.48;;;7.65;;
28762;SDS011;15918;51.270;6.522;2023-06-26T00:40:52;9.32;;;8.43;;
28762;SDS011;15918;51.270;6.522;2023-06-26T00:43:17;8.77;;;7.93;;
28762;SDS011;15918;51.270;6.522;2023-06-26T00:45:43;8.80;;;8.00;;
28762;SDS011;15918;51.270;6.522;2023-06-26T00:48:09;8.00;;;7.30;;
28762;SDS011;15918;51.270;6.522;2023-06-26T00:50:37;9.35;;;8.40;;
28762;SDS011;15918;51.270;6.522;2023-06-26T00:53:02;9.82;;;8.57;;
28762;SDS011;15918;51.270;6.522;2023-06-26T00:55:30;9.27;;;8.38;;
28762;SDS011;15918;51.270;6.522;2023-06-26T00:57:56;8.13;;;7.38;;
28762;SDS011;15918;51.270;6.522;2023-06-26T01:00:21;8.57;;;7.78;;
28762;SDS011;15918;51.270;6.522;2023-06-26T01:02:48;8.55;;;7.75;;
28762;SDS011;15918;51.270;6.522;2023-06-26T01:05:13;8.93;;;8.13;;
28762;SDS011;15918;51.270;6.522;2023-06-26T01:07:45;8.10;;;7.40;;
28762;SDS011;15918;51.270;6.522;2023-06-26T01:10:14;9.00;;;8.20;;
28762;SDS011;15918;51.270;6.522;2023-06-26T01:12:40;9.93;;;8.32;;
28762;SDS011;15918;51.270;6.522;2023-06-26T01:15:06;9.10;;;8.20;;
28762;SDS011;15918;51.270;6.522;2023-06-26T01:17:32;8.38;;;7.57;;
28762;SDS011;15918;51.270;6.522;2023-06-26T01:19:59;8.60;;;7.80;;
28762;SDS011;15918;51.270;6.522;2023-06-26T01:22:39;9.07;;;7.93;;
28762;SDS011;15918;51.270;6.522;2023-06-26T01:25:18;10.50;;;8.45;;
28762;SDS011;15918;51.270;6.522;2023-06-26T01:27:54;8.23;;;7.15;;
28762;SDS011;15918;51.270;6.522;2023-06-26T01:30:21;10.85;;;8.18;;
28762;SDS011;15918;51.270;6.522;2023-06-26T01:32:48;9.18;;;8.35;;
28762;SDS011;15918;51.270;6.522;2023-06-26T01:35:14;8.50;;;7.60;;
28762;SDS011;15918;51.270;6.522;2023-06-26T01:37:41;8.73;;;7.88;;
28762;SDS011;15918;51.270;6.522;2023-06-26T01:40:06;8.05;;;7.25;;
28762;SDS011;15918;51.270;6.522;2023-06-26T01:42:33;10.00;;;7.93;;
28762;SDS011;15918;51.270;6.522;2023-06-26T01:45:02;7.82;;;7.13;;
28762;SDS011;15918;51.270;6.522;2023-06-26T01:47:35;10.52;;;7.65;;
28762;SDS011;15918;51.270;6.522;2023-06-26T01:50:23;9.45;;;8.07;;
28762;SDS011;15918;51.270;6.522;2023-06-26T01:52:53;11.75;;;8.52;;
28762;SDS011;15918;51.270;6.522;2023-06-26T01:55:40;10.40;;;8.00;;
28762;SDS011;15918;51.270;6.522;2023-06-26T01:58:28;9.48;;;7.88;;
28762;SDS011;15918;51.270;6.522;2023-06-26T02:00:56;8.73;;;7.88;;
28762;SDS011;15918;51.270;6.522;2023-06-26T02:03:21;8.40;;;7.60;;
28762;SDS011;15918;51.270;6.522;2023-06-26T02:05:49;8.93;;;7.80;;
28762;SDS011;15918;51.270;6.522;2023-06-26T02:08:15;11.52;;;8.02;;
28762;SDS011;15918;51.270;6.522;2023-06-26T02:10:41;9.02;;;8.13;;
28762;SDS011;15918;51.270;6.522;2023-06-26T02:13:07;8.70;;;7.78;;
28762;SDS011;15918;51.270;6.522;2023-06-26T02:15:32;8.68;;;7.80;;
28762;SDS011;15918;51.270;6.522;2023-06-26T02:17:58;7.72;;;7.03;;
28762;SDS011;15918;51.270;6.522;2023-06-26T02:20:24;9.90;;;8.13;;
28762;SDS011;15918;51.270;6.522;2023-06-26T02:22:49;9.27;;;7.50;;
28762;SDS011;15918;51.270;6.522;2023-06-26T02:25:15;10.93;;;8.65;;
28762;SDS011;15918;51.270;6.522;2023-06-26T02:27:41;11.90;;;8.07;;
28762;SDS011;15918;51.270;6.522;2023-06-26T02:30:07;11.85;;;8.00;;
28762;SDS011;15918;51.270;6.522;2023-06-26T02:32:33;8.98;;;8.07;;
28762;SDS011;15918;51.270;6.522;2023-06-26T02:34:59;9.73;;;7.93;;
28762;SDS011;15918;51.270;6.522;2023-06-26T02:37:25;9.35;;;8.40;;
28762;SDS011;15918;51.270;6.522;2023-06-26T02:39:51;9.43;;;8.02;;
28762;SDS011;15918;51.270;6.522;2023-06-26T02:42:16;8.93;;;7.85;;
28762;SDS011;15918;51.270;6.522;2023-06-26T02:44:42;8.52;;;7.63;;
28762;SDS011;15918;51.270;6.522;2023-06-26T02:47:07;9.82;;;7.95;;
28762;SDS011;15918;51.270;6.522;2023-06-26T02:49:33;9.35;;;8.25;;
28762;SDS011;15918;51.270;6.522;2023-06-26T02:51:58;8.30;;;7.50;;
28762;SDS011;15918;51.270;6.522;2023-06-26T02:54:24;8.35;;;7.47;;
28762;SDS011;15918;51.270;6.522;2023-06-26T02:56:50;9.45;;;6.95;;
28762;SDS011;15918;51.270;6.522;2023-06-26T02:59:15;10.88;;;8.02;;
28762;SDS011;15918;51.270;6.522;2023-06-26T03:01:41;8.68;;;7.88;;
28762;SDS011;15918;51.270;6.522;2023-06-26T03:04:06;8.43;;;7.63;;
28762;SDS011;15918;51.270;6.522;2023-06-26T03:06:33;8.05;;;7.35;;
28762;SDS011;15918;51.270;6.522;2023-06-26T03:08:58;7.43;;;6.72;;
28762;SDS011;15918;51.270;6.522;2023-06-26T03:11:24;8.70;;;7.90;;
28762;SDS011;15918;51.270;6.522;2023-06-26T03:13:49;9.23;;;8.07;;
28762;SDS011;15918;51.270;6.522;2023-06-26T03:16:15;8.13;;;7.32;;
28762;SDS011;15918;51.270;6.522;2023-06-26T03:18:41;8.27;;;7.35;;
28762;SDS011;15918;51.270;6.522;2023-06-26T03:21:08;9.25;;;8.23;;
28762;SDS011;15918;51.270;6.522;2023-06-26T03:23:34;9.05;;;8.20;;
28762;SDS011;15918;51.270;6.522;2023-06-26T03:25:59;9.38;;;8.48;;
28762;SDS011;15918;51.270;6.522;2023-06-26T03:28:25;9.10;;;8.30;;
28762;SDS011;15918;51.270;6.522;2023-06-26T03:30:50;8.48;;;7.68;;
28762;SDS011;15918;51.270;6.522;2023-06-26T03:33:16;9.15;;;8.35;;
28762;SDS011;15918;51.270;6.522;2023-06-26T03:35:42;10.10;;;8.55;;
28762;SDS011;15918;51.270;6.522;2023-06-26T03:38:07;8.05;;;7.32;;
28762;SDS011;15918;51.270;6.522;2023-06-26T03:40:33;9.40;;;8.40;;
28762;SDS011;15918;51.270;6.522;2023-06-26T03:42:59;10.70;;;8.77;;
28762;SDS011;15918;51.270;6.522;2023-06-26T03:45:24;9.23;;;8.32;;
28762;SDS011;15918;51.270;6.522;2023-06-26T03:47:50;10.25;;;8.50;;
28762;SDS011;15918;51.270;6.522;2023-06-26T03:50:16;10.40;;;7.57;;
28762;SDS011;15918;51.270;6.522;2023-06-26T03:52:42;9.45;;;8.13;;
28762;SDS011;15918;51.270;6.522;2023-06-26T03:55:08;8.35;;;7.55;;
28762;SDS011;15918;51.270;6.522;2023-06-26T03:57:33;10.27;;;9.25;;
28762;SDS011;15918;51.270;6.522;2023-06-26T03:59:59;9.57;;;8.20;;
28762;SDS011;15918;51.270;6.522;2023-06-26T04:02:25;8.70;;;7.70;;
28762;SDS011;15918;51.270;6.522;2023-06-26T04:04:50;8.80;;;7.75;;
28762;SDS011;15918;51.270;6.522;2023-06-26T04:07:17;8.57;;;7.72;;
28762;SDS011;15918;51.270;6.522;2023-06-26T04:09:43;7.65;;;6.95;;
28762;SDS011;15918;51.270;6.522;2023-06-26T04:12:09;11.52;;;8.20;;
28762;SDS011;15918;51.270;6.522;2023-06-26T04:14:35;12.25;;;7.40;;
28762;SDS011;15918;51.270;6.522;2023-06-26T04:17:01;9.80;;;6.93;;
28762;SDS011;15918;51.270;6.522;2023-06-26T04:19:28;10.05;;;6.70;;
28762;SDS011;15918;51.270;6.522;2023-06-26T04:21:54;8.52;;;6.43;;
28762;SDS011;15918;51.270;6.522;2023-06-26T04:24:19;8.63;;;6.50;;
28762;SDS011;15918;51.270;6.522;2023-06-26T04:26:45;7.75;;;6.82;;
28762;SDS011;15918;51.270;6.522;2023-06-26T04:29:11;6.57;;;5.90;;
28762;SDS011;15918;51.270;6.522;2023-06-26T04:31:36;9.70;;;6.65;;
28762;SDS011;15918;51.270;6.522;2023-06-26T04:34:03;6.97;;;5.90;;
28762;SDS011;15918;51.270;6.522;2023-06-26T04:36:29;7.72;;;5.90;;
28762;SDS011;15918;51.270;6.522;2023-06-26T04:38:56;7.32;;;6.60;;
28762;SDS011;15918;51.270;6.522;2023-06-26T04:41:22;7.20;;;6.50;;
28762;SDS011;15918;51.270;6.522;2023-06-26T04:43:47;7.43;;;6.63;;
28762;SDS011;15918;51.270;6.522;2023-06-26T04:46:13;9.27;;;6.57;;
28762;SDS011;15918;51.270;6.522;2023-06-26T04:48:39;7.57;;;6.40;;
28762;SDS011;15918;51.270;6.522;2023-06-26T04:51:04;7.65;;;6.22;;
28762;SDS011;15918;51.270;6.522;2023-06-26T04:53:30;7.68;;;6.93;;
28762;SDS011;15918;51.270;6.522;2023-06-26T04:55:55;9.77;;;6.93;;
28762;SDS011;15918;51.270;6.522;2023-06-26T04:58:21;7.05;;;6.03;;
28762;SDS011;15918;51.270;6.522;2023-06-26T05:00:46;7.45;;;6.60;;
28762;SDS011;15918;51.270;6.522;2023-06-26T05:03:12;9.15;;;6.38;;
28762;SDS011;15918;51.270;6.522;2023-06-26T05:05:39;9.43;;;6.50;;
28762;SDS011;15918;51.270;6.522;2023-06-26T05:08:17;9.60;;;6.15;;
28762;SDS011;15918;51.270;6.522;2023-06-26T05:10:47;9.70;;;6.03;;
28762;SDS011;15918;51.270;6.522;2023-06-26T05:13:13;6.63;;;5.75;;
28762;SDS011;15918;51.270;6.522;2023-06-26T05:15:42;8.70;;;6.25;;
28762;SDS011;15918;51.270;6.522;2023-06-26T05:18:08;8.65;;;6.35;;
28762;SDS011;15918;51.270;6.522;2023-06-26T05:20:34;9.57;;;6.45;;
28762;SDS011;15918;51.270;6.522;2023-06-26T05:23:01;9.05;;;6.47;;
28762;SDS011;15918;51.270;6.522;2023-06-26T05:25:28;7.55;;;6.55;;
28762;SDS011;15918;51.270;6.522;2023-06-26T05:27:55;7.68;;;5.88;;
28762;SDS011;15918;51.270;6.522;2023-06-26T05:30:24;6.78;;;6.05;;
28762;SDS011;15918;51.270;6.522;2023-06-26T05:32:50;9.85;;;6.45;;
28762;SDS011;15918;51.270;6.522;2023-06-26T05:35:17;7.30;;;6.38;;
28762;SDS011;15918;51.270;6.522;2023-06-26T05:37:44;8.50;;;6.68;;
28762;SDS011;15918;51.270;6.522;2023-06-26T05:40:11;9.13;;;6.03;;
28762;SDS011;15918;51.270;6.522;2023-06-26T05:42:37;8.15;;;5.88;;
28762;SDS011;15918;51.270;6.522;2023-06-26T05:45:05;8.30;;;5.93;;
28762;SDS011;15918;51.270;6.522;2023-06-26T05:47:31;8.32;;;5.65;;
28762;SDS011;15918;51.270;6.522;2023-06-26T05:49:56;11.82;;;6.28;;
28762;SDS011;15918;51.270;6.522;2023-06-26T05:52:22;8.05;;;6.18;;
28762;SDS011;15918;51.270;6.522;2023-06-26T05:54:48;9.25;;;6.28;;
28762;SDS011;15918;51.270;6.522;2023-06-26T05:57:14;9.63;;;6.30;;
28762;SDS011;15918;51.270;6.522;2023-06-26T05:59:40;11.63;;;6.40;;
28762;SDS011;15918;51.270;6.522;2023-06-26T06:02:08;7.28;;;5.80;;
28762;SDS011;15918;51.270;6.522;2023-06-26T06:04:34;9.60;;;5.97;;
28762;SDS011;15918;51.270;6.522;2023-06-26T06:07:02;9.55;;;5.75;;
28762;SDS011;15918;51.270;6.522;2023-06-26T06:09:27;7.97;;;5.75;;
28762;SDS011;15918;51.270;6.522;2023-06-26T06:11:53;10.48;;;6.13;;
28762;SDS011;15918;51.270;6.522;2023-06-26T06:14:19;11.88;;;6.40;;
28762;SDS011;15918;51.270;6.522;2023-06-26T06:16:45;10.35;;;6.10;;
28762;SDS011;15918;51.270;6.522;2023-06-26T06:19:11;11.30;;;6.78;;
28762;SDS011;15918;51.270;6.522;2023-06-26T06:21:38;9.73;;;5.90;;
28762;SDS011;15918;51.270;6.522;2023-06-26T06:24:04;11.25;;;6.45;;
28762;SDS011;15918;51.270;6.522;2023-06-26T06:26:33;9.27;;;6.15;;
28762;SDS011;15918;51.270;6.522;2023-06-26T06:28:58;8.07;;;5.57;;
28762;SDS011;15918;51.270;6.522;2023-06-26T06:31:24;13.40;;;6.45;;
28762;SDS011;15918;51.270;6.522;2023-06-26T06:33:50;9.60;;;5.90;;
28762;SDS011;15918;51.270;6.522;2023-06-26T06:36:15;11.48;;;6.03;;
28762;SDS011;15918;51.270;6.522;2023-06-26T06:38:44;13.32;;;6.00;;
28762;SDS011;15918;51.270;6.522;2023-06-26T06:41:10;8.45;;;6.32;;
28762;SDS011;15918;51.270;6.522;2023-06-26T06:43:37;9.40;;;5.85;;
28762;SDS011;15918;51.270;6.522;2023-06-26T06:46:03;8.07;;;5.78;;
28762;SDS011;15918;51.270;6.522;2023-06-26T06:48:29;11.00;;;6.18;;
28762;SDS011;15918;51.270;6.522;2023-06-26T06:50:55;9.45;;;5.88;;
28762;SDS011;15918;51.270;6.522;2023-06-26T06:53:21;11.35;;;5.93;;
28762;SDS011;15918;51.270;6.522;2023-06-26T06:55:47;14.27;;;5.95;;
28762;SDS011;15918;51.270;6.522;2023-06-26T06:58:13;14.73;;;6.22;;
28762;SDS011;15918;51.270;6.522;2023-06-26T07:00:41;10.05;;;5.82;;
28762;SDS011;15918;51.270;6.522;2023-06-26T07:03:07;13.82;;;5.68;;
28762;SDS011;15918;51.270;6.522;2023-06-26T07:05:32;10.88;;;5.93;;
28762;SDS011;15918;51.270;6.522;2023-06-26T07:07:58;10.70;;;5.88;;
28762;SDS011;15918;51.270;6.522;2023-06-26T07:10:24;12.60;;;6.28;;
28762;SDS011;15918;51.270;6.522;2023-06-26T07:12:49;10.57;;;6.63;;
28762;SDS011;15918;51.270;6.522;2023-06-26T07:15:16;11.80;;;6.20;;
28762;SDS011;15918;51.270;6.522;2023-06-26T07:17:42;10.35;;;6.20;;
28762;SDS011;15918;51.270;6.522;2023-06-26T07:20:08;13.07;;;6.57;;
28762;SDS011;15918;51.270;6.522;2023-06-26T07:22:40;13.82;;;7.43;;
28762;SDS011;15918;51.270;6.522;2023-06-26T07:25:05;15.65;;;6.32;;
28762;SDS011;15918;51.270;6.522;2023-06-26T07:27:34;11.32;;;5.90;;
28762;SDS011;15918;51.270;6.522;2023-06-26T07:30:03;11.57;;;6.07;;
28762;SDS011;15918;51.270;6.522;2023-06-26T07:32:29;11.35;;;5.55;;
28762;SDS011;15918;51.270;6.522;2023-06-26T07:34:54;9.43;;;5.32;;
28762;SDS011;15918;51.270;6.522;2023-06-26T07:37:20;11.45;;;5.38;;
28762;SDS011;15918;51.270;6.522;2023-06-26T07:39:47;12.43;;;5.65;;
28762;SDS011;15918;51.270;6.522;2023-06-26T07:42:13;13.10;;;6.70;;
28762;SDS011;15918;51.270;6.522;2023-06-26T07:44:38;9.82;;;5.72;;
28762;SDS011;15918;51.270;6.522;2023-06-26T07:47:04;11.45;;;6.65;;
28762;SDS011;15918;51.270;6.522;2023-06-26T07:49:29;12.90;;;6.82;;
28762;SDS011;15918;51.270;6.522;2023-06-26T07:51:55;9.88;;;6.18;;
28762;SDS011;15918;51.270;6.522;2023-06-26T07:54:21;17.20;;;6.35;;
28762;SDS011;15918;51.270;6.522;2023-06-26T07:56:56;11.55;;;6.05;;
28762;SDS011;15918;51.270;6.522;2023-06-26T07:59:27;10.82;;;5.30;;
28762;SDS011;15918;51.270;6.522;2023-06-26T08:01:53;14.55;;;6.05;;
28762;SDS011;15918;51.270;6.522;2023-06-26T08:04:21;10.00;;;5.80;;
28762;SDS011;15918;51.270;6.522;2023-06-26T08:06:48;11.93;;;5.65;;
28762;SDS011;15918;51.270;6.522;2023-06-26T08:09:15;15.30;;;6.45;;
28762;SDS011;15918;51.270;6.522;2023-06-26T08:11:41;13.23;;;5.38;;
28762;SDS011;15918;51.270;6.522;2023-06-26T08:14:07;11.57;;;5.07;;
28762;SDS011;15918;51.270;6.522;2023-06-26T08:16:33;14.07;;;5.95;;
28762;SDS011;15918;51.270;6.522;2023-06-26T08:18:59;9.77;;;5.53;;
28762;SDS011;15918;51.270;6.522;2023-06-26T08:21:25;10.45;;;5.07;;
28762;SDS011;15918;51.270;6.522;2023-06-26T08:23:50;15.50;;;5.60;;
28762;SDS011;15918;51.270;6.522;2023-06-26T08:26:16;10.30;;;5.70;;
28762;SDS011;15918;51.270;6.522;2023-06-26T08:28:42;11.73;;;4.88;;
28762;SDS011;15918;51.270;6.522;2023-06-26T08:31:07;8.93;;;4.75;;
28762;SDS011;15918;51.270;6.522;2023-06-26T08:33:33;10.55;;;4.90;;
28762;SDS011;15918;51.270;6.522;2023-06-26T08:35:58;12.15;;;5.10;;
28762;SDS011;15918;51.270;6.522;2023-06-26T08:38:25;8.88;;;5.20;;
28762;SDS011;15918;51.270;6.522;2023-06-26T08:40:50;10.77;;;5.30;;
28762;SDS011;15918;51.270;6.522;2023-06-26T08:43:16;11.55;;;5.30;;
28762;SDS011;15918;51.270;6.522;2023-06-26T08:45:42;13.10;;;5.20;;
28762;SDS011;15918;51.270;6.522;2023-06-26T08:48:08;13.57;;;5.43;;
28762;SDS011;15918;51.270;6.522;2023-06-26T08:50:34;13.98;;;5.05;;
28762;SDS011;15918;51.270;6.522;2023-06-26T08:55:38;14.75;;;4.90;;
28762;SDS011;15918;51.270;6.522;2023-06-26T08:58:07;11.57;;;4.90;;
28762;SDS011;15918;51.270;6.522;2023-06-26T09:00:32;11.25;;;4.40;;
28762;SDS011;15918;51.270;6.522;2023-06-26T09:02:59;10.88;;;4.47;;
28762;SDS011;15918;51.270;6.522;2023-06-26T09:05:26;12.15;;;5.13;;
28762;SDS011;15918;51.270;6.522;2023-06-26T09:07:52;12.00;;;4.90;;
28762;SDS011;15918;51.270;6.522;2023-06-26T09:10:20;10.27;;;4.53;;
28762;SDS011;15918;51.270;6.522;2023-06-26T09:12:47;10.40;;;4.38;;
28762;SDS011;15918;51.270;6.522;2023-06-26T09:15:15;11.48;;;4.43;;
28762;SDS011;15918;51.270;6.522;2023-06-26T09:17:44;10.02;;;4.28;;
28762;SDS011;15918;51.270;6.522;2023-06-26T09:20:10;8.40;;;3.80;;
28762;SDS011;15918;51.270;6.522;2023-06-26T09:22:37;7.07;;;3.63;;
28762;SDS011;15918;51.270;6.522;2023-06-26T09:25:04;9.93;;;4.70;;
28762;SDS011;15918;51.270;6.522;2023-06-26T09:27:30;5.97;;;3.60;;
28762;SDS011;15918;51.270;6.522;2023-06-26T09:29:56;9.32;;;4.57;;
28762;SDS011;15918;51.270;6.522;2023-06-26T09:32:26;9.63;;;4.60;;
28762;SDS011;15918;51.270;6.522;2023-06-26T09:34:52;7.85;;;4.25;;
28762;SDS011;15918;51.270;6.522;2023-06-26T09:37:20;7.30;;;3.55;;
28762;SDS011;15918;51.270;6.522;2023-06-26T09:39:47;8.48;;;4.25;;
28762;SDS011;15918;51.270;6.522;2023-06-26T09:42:14;11.65;;;3.90;;
28762;SDS011;15918;51.270;6.522;2023-06-26T09:44:43;8.93;;;3.72;;
28762;SDS011;15918;51.270;6.522;2023-06-26T09:47:10;8.30;;;3.30;;
28762;SDS011;15918;51.270;6.522;2023-06-26T09:49:36;5.97;;;3.58;;
28762;SDS011;15918;51.270;6.522;2023-06-26T09:52:01;7.82;;;3.53;;
28762;SDS011;15918;51.270;6.522;2023-06-26T09:54:27;10.23;;;3.45;;
28762;SDS011;15918;51.270;6.522;2023-06-26T09:56:55;6.63;;;3.55;;
28762;SDS011;15918;51.270;6.522;2023-06-26T09:59:31;8.25;;;3.42;;
28762;SDS011;15918;51.270;6.522;2023-06-26T10:01:59;8.60;;;3.50;;
28762;SDS011;15918;51.270;6.522;2023-06-26T10:04:25;13.43;;;3.40;;
28762;SDS011;15918;51.270;6.522;2023-06-26T10:06:51;7.03;;;3.60;;
28762;SDS011;15918;51.270;6.522;2023-06-26T10:09:20;6.90;;;3.53;;
28762;SDS011;15918;51.270;6.522;2023-06-26T10:12:01;8.55;;;3.20;;
28762;SDS011;15918;51.270;6.522;2023-06-26T10:14:33;7.82;;;3.20;;
28762;SDS011;15918;51.270;6.522;2023-06-26T10:17:01;11.93;;;3.72;;
28762;SDS011;15918;51.270;6.522;2023-06-26T10:19:41;5.00;;;2.60;;
28762;SDS011;15918;51.270;6.522;2023-06-26T10:22:09;7.68;;;3.03;;
28762;SDS011;15918;51.270;6.522;2023-06-26T10:24:39;7.05;;;3.00;;
28762;SDS011;15918;51.270;6.522;2023-06-26T10:27:19;7.93;;;3.20;;
28762;SDS011;15918;51.270;6.522;2023-06-26T10:29:48;8.25;;;3.30;;
28762;SDS011;15918;51.270;6.522;2023-06-26T10:32:26;6.07;;;3.17;;
28762;SDS011;15918;51.270;6.522;2023-06-26T10:34:53;8.63;;;3.28;;
28762;SDS011;15918;51.270;6.522;2023-06-26T10:37:20;5.93;;;3.05;;
28762;SDS011;15918;51.270;6.522;2023-06-26T10:39:46;3.70;;;2.40;;
28762;SDS011;15918;51.270;6.522;2023-06-26T10:42:14;4.47;;;2.55;;
28762;SDS011;15918;51.270;6.522;2023-06-26T10:44:45;3.58;;;2.10;;
28762;SDS011;15918;51.270;6.522;2023-06-26T10:47:12;6.45;;;2.55;;
28762;SDS011;15918;51.270;6.522;2023-06-26T10:49:57;5.70;;;2.13;;
28762;SDS011;15918;51.270;6.522;2023-06-26T10:52:41;2.97;;;2.22;;
28762;SDS011;15918;51.270;6.522;2023-06-26T10:55:08;5.82;;;2.50;;
28762;SDS011;15918;51.270;6.522;2023-06-26T10:57:35;6.93;;;2.40;;
28762;SDS011;15918;51.270;6.522;2023-06-26T11:00:08;3.95;;;2.13;;
28762;SDS011;15918;51.270;6.522;2023-06-26T11:02:56;4.97;;;2.22;;
28762;SDS011;15918;51.270;6.522;2023-06-26T11:08:07;4.30;;;2.10;;
28762;SDS011;15918;51.270;6.522;2023-06-26T11:13:17;3.55;;;2.08;;
28762;SDS011;15918;51.270;6.522;2023-06-26T11:15:44;4.55;;;2.30;;
28762;SDS011;15918;51.270;6.522;2023-06-26T11:18:10;6.85;;;2.20;;
28762;SDS011;15918;51.270;6.522;2023-06-26T11:20:37;3.72;;;2.10;;
28762;SDS011;15918;51.270;6.522;2023-06-26T11:23:03;5.25;;;1.92;;
28762;SDS011;15918;51.270;6.522;2023-06-26T11:25:33;7.90;;;2.08;;
28762;SDS011;15918;51.270;6.522;2023-06-26T11:28:00;7.72;;;2.15;;
28762;SDS011;15918;51.270;6.522;2023-06-26T11:30:26;3.88;;;1.92;;
28762;SDS011;15918;51.270;6.522;2023-06-26T11:32:52;3.35;;;1.90;;
28762;SDS011;15918;51.270;6.522;2023-06-26T11:35:24;4.95;;;2.47;;
28762;SDS011;15918;51.270;6.522;2023-06-26T11:37:55;6.53;;;2.28;;
28762;SDS011;15918;51.270;6.522;2023-06-26T11:40:22;6.78;;;2.00;;
28762;SDS011;15918;51.270;6.522;2023-06-26T11:42:52;3.45;;;1.65;;
28762;SDS011;15918;51.270;6.522;2023-06-26T11:45:19;3.95;;;1.85;;
28762;SDS011;15918;51.270;6.522;2023-06-26T11:47:45;4.82;;;1.60;;
28762;SDS011;15918;51.270;6.522;2023-06-26T11:50:16;5.50;;;1.95;;
28762;SDS011;15918;51.270;6.522;2023-06-26T11:52:43;5.18;;;1.75;;
28762;SDS011;15918;51.270;6.522;2023-06-26T11:55:09;4.07;;;1.55;;
28762;SDS011;15918;51.270;6.522;2023-06-26T11:57:35;5.05;;;1.83;;
28762;SDS011;15918;51.270;6.522;2023-06-26T12:00:14;2.55;;;1.52;;
28762;SDS011;15918;51.270;6.522;2023-06-26T12:02:41;5.05;;;1.88;;
28762;SDS011;15918;51.270;6.522;2023-06-26T12:05:09;3.00;;;1.50;;
28762;SDS011;15918;51.270;6.522;2023-06-26T12:07:35;5.15;;;1.50;;
28762;SDS011;15918;51.270;6.522;2023-06-26T12:10:02;2.47;;;1.40;;
28762;SDS011;15918;51.270;6.522;2023-06-26T12:12:28;7.85;;;2.10;;
28762;SDS011;15918;51.270;6.522;2023-06-26T12:14:54;3.15;;;1.77;;
28762;SDS011;15918;51.270;6.522;2023-06-26T12:17:22;4.25;;;1.67;;
28762;SDS011;15918;51.270;6.522;2023-06-26T12:19:50;4.28;;;1.40;;
28762;SDS011;15918;51.270;6.522;2023-06-26T12:22:17;2.80;;;1.63;;
28762;SDS011;15918;51.270;6.522;2023-06-26T12:24:43;5.65;;;1.90;;
28762;SDS011;15918;51.270;6.522;2023-06-26T12:27:12;4.93;;;1.60;;
28762;SDS011;15918;51.270;6.522;2023-06-26T12:29:39;2.50;;;1.70;;
28762;SDS011;15918;51.270;6.522;2023-06-26T12:32:09;5.00;;;1.45;;
28762;SDS011;15918;51.270;6.522;2023-06-26T12:34:36;4.03;;;1.67;;
28762;SDS011;15918;51.270;6.522;2023-06-26T12:37:06;3.17;;;1.52;;
28762;SDS011;15918;51.270;6.522;2023-06-26T12:39:46;5.18;;;1.75;;
28762;SDS011;15918;51.270;6.522;2023-06-26T12:42:20;4.43;;;1.70;;
28762;SDS011;15918;51.270;6.522;2023-06-26T12:44:51;11.35;;;2.13;;
28762;SDS011;15918;51.270;6.522;2023-06-26T12:47:17;3.53;;;1.88;;
28762;SDS011;15918;51.270;6.522;2023-06-26T12:49:49;4.50;;;1.50;;
28762;SDS011;15918;51.270;6.522;2023-06-26T12:52:16;4.15;;;1.75;;
28762;SDS011;15918;51.270;6.522;2023-06-26T12:54:44;5.30;;;1.58;;
28762;SDS011;15918;51.270;6.522;2023-06-26T12:57:11;6.30;;;1.88;;
28762;SDS011;15918;51.270;6.522;2023-06-26T12:59:39;5.63;;;1.67;;
28762;SDS011;15918;51.270;6.522;2023-06-26T13:02:05;8.85;;;1.83;;
28762;SDS011;15918;51.270;6.522;2023-06-26T13:04:33;3.60;;;1.70;;
28762;SDS011;15918;51.270;6.522;2023-06-26T13:06:59;6.40;;;1.55;;
28762;SDS011;15918;51.270;6.522;2023-06-26T13:09:25;5.65;;;1.58;;
28762;SDS011;15918;51.270;6.522;2023-06-26T13:11:51;4.00;;;1.50;;
28762;SDS011;15918;51.270;6.522;2023-06-26T13:14:17;1.70;;;1.10;;
28762;SDS011;15918;51.270;6.522;2023-06-26T13:16:43;6.93;;;1.70;;
28762;SDS011;15918;51.270;6.522;2023-06-26T13:19:08;3.70;;;1.63;;
28762;SDS011;15918;51.270;6.522;2023-06-26T13:21:35;4.63;;;1.63;;
28762;SDS011;15918;51.270;6.522;2023-06-26T13:24:01;3.83;;;1.40;;
28762;SDS011;15918;51.270;6.522;2023-06-26T13:26:28;4.43;;;1.60;;
28762;SDS011;15918;51.270;6.522;2023-06-26T13:28:55;3.55;;;1.48;;
28762;SDS011;15918;51.270;6.522;2023-06-26T13:31:20;5.15;;;1.80;;
28762;SDS011;15918;51.270;6.522;2023-06-26T13:33:49;5.35;;;1.77;;
28762;SDS011;15918;51.270;6.522;2023-06-26T13:36:19;4.15;;;1.70;;
28762;SDS011;15918;51.270;6.522;2023-06-26T13:38:46;2.38;;;1.63;;
28762;SDS011;15918;51.270;6.522;2023-06-26T13:41:15;3.95;;;1.58;;
28762;SDS011;15918;51.270;6.522;2023-06-26T13:43:41;2.78;;;1.50;;
28762;SDS011;15918;51.270;6.522;2023-06-26T13:46:06;3.10;;;1.73;;
28762;SDS011;15918;51.270;6.522;2023-06-26T13:48:32;4.07;;;2.10;;
28762;SDS011;15918;51.270;6.522;2023-06-26T13:50:58;5.25;;;1.90;;
28762;SDS011;15918;51.270;6.522;2023-06-26T13:53:24;4.65;;;1.92;;
28762;SDS011;15918;51.270;6.522;2023-06-26T13:55:50;3.50;;;1.77;;
28762;SDS011;15918;51.270;6.522;2023-06-26T13:58:15;3.33;;;1.88;;
28762;SDS011;15918;51.270;6.522;2023-06-26T14:00:41;3.85;;;1.80;;
28762;SDS011;15918;51.270;6.522;2023-06-26T14:03:09;4.20;;;1.88;;
28762;SDS011;15918;51.270;6.522;2023-06-26T14:05:35;3.47;;;1.88;;
28762;SDS011;15918;51.270;6.522;2023-06-26T14:08:03;3.88;;;1.80;;
28762;SDS011;15918;51.270;6.522;2023-06-26T14:10:30;9.80;;;2.25;;
28762;SDS011;15918;51.270;6.522;2023-06-26T14:12:57;4.30;;;2.10;;
28762;SDS011;15918;51.270;6.522;2023-06-26T14:15:23;6.82;;;2.05;;
28762;SDS011;15918;51.270;6.522;2023-06-26T14:17:49;3.55;;;1.73;;
28762;SDS011;15918;51.270;6.522;2023-06-26T14:20:16;2.53;;;1.75;;
28762;SDS011;15918;51.270;6.522;2023-06-26T14:22:42;7.07;;;2.47;;
28762;SDS011;15918;51.270;6.522;2023-06-26T14:25:12;2.50;;;1.38;;
28762;SDS011;15918;51.270;6.522;2023-06-26T14:27:38;4.30;;;1.60;;
28762;SDS011;15918;51.270;6.522;2023-06-26T14:30:04;2.40;;;1.80;;
28762;SDS011;15918;51.270;6.522;2023-06-26T14:32:32;3.42;;;1.77;;
28762;SDS011;15918;51.270;6.522;2023-06-26T14:34:58;2.83;;;1.80;;
28762;SDS011;15918;51.270;6.522;2023-06-26T14:37:24;6.53;;;1.88;;
28762;SDS011;15918;51.270;6.522;2023-06-26T14:39:51;2.97;;;1.70;;
28762;SDS011;15918;51.270;6.522;2023-06-26T14:42:16;3.55;;;1.30;;
28762;SDS011;15918;51.270;6.522;2023-06-26T14:44:42;3.88;;;1.60;;
28762;SDS011;15918;51.270;6.522;2023-06-26T14:47:08;4.38;;;1.67;;
28762;SDS011;15918;51.270;6.522;2023-06-26T14:49:33;4.35;;;1.60;;
28762;SDS011;15918;51.270;6.522;2023-06-26T14:51:59;3.88;;;1.45;;
28762;SDS011;15918;51.270;6.522;2023-06-26T14:54:25;5.18;;;1.50;;